»·PEaware :: OEALL KSNA-KBUR

OEALL :: KSNA-KBUR

FLIGHT INFORMATION

Flight Status: Arrived
Operator: Unknown
More flights by this operator :: More flights under this callsign
Pilot: Karl Tõnis L. (17918)
Aircraft: SOCATA TBM-900
(TBM9)
More flights by this aircraft type
Origin: KSNA John Wayne-Orange Co
United States
Destination: KBUR Bob Hope-Burbank
United States
More flights between these airports :: More routes between these airports
Route: +SLI V23 LAX LAX316R SILEX
File this flight plan on PilotEdge
Remarks: OPR / PRIVATE DOF / 200213 RMK / I-3 RATING
Altitude:
(Current/Filed)
6,000ft
Speed:
(Current/Filed)
230kts
Departed: 13-Feb-20 11:36 AM
Arrived: 13-Feb-20 12:03 PM
Distance/Time
Traveled:
40nm/0:26
Distance/Time
To Go:
Arrived

Flight Plot

Page will automatically refresh every two minutes.


Map Options




Map Legend


Flown Route
Filed Route
Departure Airport
Arrival Airport
Navaid (VOR, NDB)
Fix

Horizontal Profiles

Position Reports

Time Latitude Longitude Heading Altitude Ground
Speed
13-Feb-20 11:16 33.671050 -117.873826 281 57ft 0kts
13-Feb-20 11:17 33.671050 -117.873826 281 57ft 0kts
13-Feb-20 11:18 33.671050 -117.873826 281 57ft 0kts
13-Feb-20 11:19 33.671050 -117.873826 281 57ft 0kts
13-Feb-20 11:20 33.671050 -117.873826 281 57ft 0kts
13-Feb-20 11:21 33.671050 -117.873826 281 57ft 0kts
13-Feb-20 11:22 33.671050 -117.873826 281 57ft 0kts
13-Feb-20 11:23 33.671050 -117.873826 281 57ft 0kts
13-Feb-20 11:24 33.671050 -117.873826 281 57ft 0kts
13-Feb-20 11:25 33.671050 -117.873826 281 57ft 0kts
13-Feb-20 11:26 33.671050 -117.873826 281 57ft 0kts
13-Feb-20 11:27 33.673550 -117.871708 27 54ft 16kts
13-Feb-20 11:28 33.678020 -117.868860 28 50ft 19kts
13-Feb-20 11:29 33.680619 -117.867404 28 47ft 18kts
13-Feb-20 11:30 33.681213 -117.866403 123 46ft 0kts
13-Feb-20 11:31 33.681213 -117.866403 123 46ft 0kts
13-Feb-20 11:32 33.681213 -117.866403 123 46ft 0kts
13-Feb-20 11:33 33.681213 -117.866403 123 46ft 0kts
13-Feb-20 11:34 33.679880 -117.866221 207 47ft 38kts
13-Feb-20 11:35 33.654588 -117.884523 233 460ft 132kts
13-Feb-20 11:36 33.637791 -117.922250 242 1894ft 125kts
13-Feb-20 11:37 33.621108 -117.960363 242 3767ft 132kts
13-Feb-20 11:38 33.602793 -118.002155 242 5619ft 150kts
13-Feb-20 11:39 33.597987 -118.054452 302 5949ft 190kts
13-Feb-20 11:40 33.634646 -118.109475 315 5958ft 235kts
13-Feb-20 11:41 33.683855 -118.165297 318 5954ft 250kts
13-Feb-20 11:42 33.735617 -118.221199 318 5955ft 252kts
13-Feb-20 11:43 33.787916 -118.277038 318 5952ft 252kts
13-Feb-20 11:44 33.840508 -118.333097 319 5953ft 251kts
13-Feb-20 11:45 33.892596 -118.388651 319 5952ft 251kts
13-Feb-20 11:46 33.947553 -118.439555 328 5955ft 250kts
13-Feb-20 11:47 34.007631 -118.481610 331 5953ft 249kts
13-Feb-20 11:48 34.068199 -118.522231 331 5955ft 248kts
13-Feb-20 11:49 34.128769 -118.562185 331 5809ft 254kts
13-Feb-20 11:50 34.189651 -118.602322 331 4764ft 218kts
13-Feb-20 11:51 34.216244 -118.579773 142 3805ft 172kts
13-Feb-20 11:52 34.198010 -118.609453 270 3803ft 132kts
13-Feb-20 11:53 34.203851 -118.657088 332 3931ft 160kts
13-Feb-20 11:54 34.215550 -118.626743 103 3942ft 121kts
13-Feb-20 11:55 34.202284 -118.588470 126 3513ft 127kts
13-Feb-20 11:56 34.200517 -118.553950 95 3413ft 113kts
13-Feb-20 11:57 34.199657 -118.521486 97 3178ft 83kts
13-Feb-20 11:58 34.199332 -118.490341 91 2824ft 104kts
13-Feb-20 11:59 34.198137 -118.455861 89 2125ft 101kts
13-Feb-20 12:00 34.198904 -118.422970 89 1668ft 100kts
13-Feb-20 12:01 34.198171 -118.389923 90 1139ft 98kts
13-Feb-20 12:02 34.197856 -118.362480 92 719ft 38kts
13-Feb-20 12:03 34.198601 -118.360245 357 716ft 0kts
13-Feb-20 12:04 34.198920 -118.361999 272 719ft 17kts

Navigation Log

Ident Type
Flight plan parsing failed, navigation log unavailable